Terminal Aerodrome Forecast
Issued by NWS

Home | Current Version | Previous Version | Text Only | Print | Product List | Glossary On
Versions: 1 2 3 4 5 6 7 8 9 10 11 12 13 14 15 16 17 18 19 20 21 22 23 24 25 26 27 28 29 30 31 32
000
FTUS42 KEYW 120500
TAFMTH
TAF
KMTH 120539Z 1206/1306 11010KT P6SM VCTS SCT020CB SCT050
     FM120700 10008KT P6SM VCSH SCT025 SCT050
     FM121400 09006KT P6SM SCT025=

USA.gov is the U.S. government's official web portal to all federal, state and local government web resources and services.